Time;durP1;ratioP1;P1;durP2;ratioP2;P2;SDS_P1;SDS_P2;PMS_P1;PMS_P2;Temp;Humidity;BMP_temperature;BMP_pressure;BME280_temperature;BME280_humidity;BME280_pressure;Samples;Min_cycle;Max_cycle;Signal;HPM_P1;HPM_P2
2021/09/22 00:00:18;;;;;;;16.57;5.57;;;;;;;14.61;75.48;102669.69;6138493;28;20215;-49
2021/09/22 00:03:39;;;;;;;24.27;7.23;;;;;;;14.62;75.20;102674.06;6136565;28;20235;-54
2021/09/22 00:07:02;;;;;;;23.57;6.83;;;;;;;14.68;75.08;102671.47;6139743;28;20231;-50
2021/09/22 00:10:23;;;;;;;17.63;5.93;;;;;;;14.64;75.03;102668.84;6140462;28;20294;-52
2021/09/22 00:13:44;;;;;;;17.80;5.93;;;;;;;14.64;75.01;102672.31;6127146;29;20223;-54
2021/09/22 00:17:05;;;;;;;17.73;5.13;;;;;;;14.66;75.11;102669.72;6136725;28;20247;-51
2021/09/22 00:20:26;;;;;;;17.30;6.40;;;;;;;14.67;75.06;102667.06;6143736;28;20236;-51
2021/09/22 00:23:48;;;;;;;22.40;5.90;;;;;;;14.69;74.78;102670.56;6140616;28;20250;-51
2021/09/22 00:27:10;;;;;;;20.10;7.50;;;;;;;14.59;75.13;102658.31;6138806;28;20227;-50
2021/09/22 00:30:31;;;;;;;16.93;5.73;;;;;;;14.51;75.40;102660.00;6140013;28;20624;-51
2021/09/22 00:33:54;;;;;;;17.77;6.40;;;;;;;14.58;75.04;102667.06;6156301;28;20521;-50
2021/09/22 00:37:16;;;;;;;19.80;6.40;;;;;;;14.47;75.19;102663.47;6141048;28;20321;-48
2021/09/22 00:40:38;;;;;;;17.07;5.40;;;;;;;14.44;75.47;102668.69;6148492;28;20219;-49
2021/09/22 00:43:59;;;;;;;15.43;5.20;;;;;;;14.40;75.31;102661.69;6149004;28;22034;-53
2021/09/22 00:47:21;;;;;;;18.80;4.77;;;;;;;14.31;75.70;102671.28;6142665;28;20243;-53
2021/09/22 00:50:42;;;;;;;19.83;6.83;;;;;;;14.33;75.62;102666.06;6138876;28;20617;-51
2021/09/22 00:54:03;;;;;;;14.70;6.60;;;;;;;14.44;75.37;102668.69;6149156;28;20214;-52
2021/09/22 00:57:26;;;;;;;19.43;6.50;;;;;;;14.35;75.46;102667.81;6133121;28;20508;-50
2021/09/22 01:00:47;;;;;;;19.40;5.87;;;;;;;14.34;75.62;102679.13;6141621;28;20591;-48
2021/09/22 01:04:08;;;;;;;17.80;6.43;;;;;;;14.30;75.50;102669.50;6139817;28;20191;-49
2021/09/22 01:07:29;;;;;;;15.53;5.37;;;;;;;14.23;76.04;102678.22;6146086;28;20239;-49
2021/09/22 01:10:50;;;;;;;17.00;4.93;;;;;;;14.09;76.39;102677.25;6143346;28;20286;-51
2021/09/22 01:14:13;;;;;;;17.13;5.03;;;;;;;14.25;75.54;102676.50;6144244;28;20196;-50
2021/09/22 01:17:34;;;;;;;19.20;5.73;;;;;;;14.32;75.50;102665.16;6140523;29;20231;-54
2021/09/22 01:20:59;;;;;;;17.70;7.67;;;;;;;14.30;75.75;102666.88;6142373;28;20204;-48
2021/09/22 01:24:23;;;;;;;16.00;5.90;;;;;;;14.22;76.11;102663.34;6149029;28;20457;-51
2021/09/22 01:27:47;;;;;;;13.33;5.47;;;;;;;14.13;76.24;102668.53;6139544;28;20931;-48
2021/09/22 01:31:09;;;;;;;15.67;5.67;;;;;;;14.10;76.04;102679.91;6153969;28;20258;-52
2021/09/22 01:34:31;;;;;;;15.13;5.50;;;;;;;14.02;76.58;102683.34;6139664;28;20546;-50
2021/09/22 01:38:04;;;;;;;11.37;5.00;;;;;;;14.01;76.50;102678.97;6146223;28;20234;-54
2021/09/22 01:41:44;;;;;;;16.97;5.77;;;;;;;14.17;75.89;102670.31;6147928;28;20247;-48
2021/09/22 01:45:08;;;;;;;17.70;6.90;;;;;;;14.02;76.43;102665.88;6147910;28;20208;-55
2021/09/22 01:48:34;;;;;;;14.73;5.00;;;;;;;14.04;76.13;102660.66;6140337;28;20238;-52
2021/09/22 01:51:57;;;;;;;14.40;6.73;;;;;;;13.94;76.87;102662.34;6155422;28;20258;-54
2021/09/22 01:55:21;;;;;;;12.50;4.73;;;;;;;13.85;77.00;102672.75;6145015;28;20199;-49
2021/09/22 01:58:49;;;;;;;16.43;7.30;;;;;;;13.89;77.11;102678.00;6140409;28;20219;-53
2021/09/22 02:02:17;;;;;;;17.30;5.90;;;;;;;13.85;77.29;102668.38;6129169;28;20235;-48
2021/09/22 02:05:58;;;;;;;16.70;5.27;;;;;;;13.98;77.01;102664.97;6147566;28;20207;-52
2021/09/22 02:09:20;;;;;;;18.20;5.13;;;;;;;13.84;77.46;102658.78;6146097;28;20216;-51
2021/09/22 02:12:41;;;;;;;19.97;5.50;;;;;;;13.96;77.30;102660.59;6147871;28;20227;-53
2021/09/22 02:16:04;;;;;;;17.90;6.13;;;;;;;13.95;76.56;102651.84;6154445;28;20235;-52
2021/09/22 02:19:45;;;;;;;21.53;5.83;;;;;;;14.07;76.46;102648.44;6143041;28;20196;-53
2021/09/22 02:23:25;;;;;;;12.43;4.80;;;;;;;14.10;76.05;102656.31;6140384;28;20231;-51
2021/09/22 02:26:51;;;;;;;15.20;5.37;;;;;;;14.11;75.99;102650.22;6156465;28;20564;-50
2021/09/22 02:30:17;;;;;;;18.10;5.47;;;;;;;13.94;76.83;102657.09;6139591;28;20239;-52
2021/09/22 02:33:45;;;;;;;16.77;4.77;;;;;;;14.00;76.58;102657.13;6137859;28;20239;-52
2021/09/22 02:37:06;;;;;;;14.73;4.40;;;;;;;13.89;77.24;102657.06;6161216;28;20223;-55
2021/09/22 02:40:35;;;;;;;25.37;6.60;;;;;;;13.99;76.77;102648.38;6149492;28;20203;-49
2021/09/22 02:43:57;;;;;;;15.73;5.63;;;;;;;13.97;76.76;102652.75;6141811;28;20243;-50
2021/09/22 02:47:21;;;;;;;15.03;5.13;;;;;;;13.79;77.17;102652.63;6139393;28;20231;-50
2021/09/22 02:50:45;;;;;;;19.90;6.10;;;;;;;13.75;78.35;102653.47;6139571;28;20228;-50
2021/09/22 02:54:07;;;;;;;15.20;6.17;;;;;;;13.86;76.94;102649.19;6131912;29;20239;-50
2021/09/22 02:57:34;;;;;;;17.17;5.17;;;;;;;13.70;77.28;102647.31;6151524;28;20235;-51
2021/09/22 03:00:57;;;;;;;15.97;4.60;;;;;;;13.86;77.11;102643.06;6140081;28;20226;-50
2021/09/22 03:04:18;;;;;;;14.07;4.67;;;;;;;13.65;78.33;102630.69;6135165;29;20207;-51
2021/09/22 03:07:40;;;;;;;18.13;7.30;;;;;;;14.02;77.55;102638.81;6156490;28;20263;-51
2021/09/22 03:11:06;;;;;;;17.83;11.20;;;;;;;14.01;77.59;102648.41;6143729;28;20196;-48
2021/09/22 03:14:28;;;;;;;31.93;24.00;;;;;;;14.10;76.71;102647.59;6141165;28;20215;-53
2021/09/22 03:17:49;;;;;;;20.47;13.60;;;;;;;14.11;76.58;102644.09;6135038;28;20231;-50
2021/09/22 03:21:11;;;;;;;15.07;7.53;;;;;;;13.90;77.08;102643.13;6148476;28;20227;-53
2021/09/22 03:24:33;;;;;;;19.07;5.97;;;;;;;13.93;77.36;102643.09;6156265;28;20211;-51
2021/09/22 03:27:54;;;;;;;21.90;6.17;;;;;;;14.02;76.47;102644.94;6132284;29;20251;-53
2021/09/22 03:31:16;;;;;;;18.63;5.70;;;;;;;13.85;77.79;102639.56;6144281;28;20235;-52
2021/09/22 03:34:38;;;;;;;14.93;4.93;;;;;;;14.01;76.70;102643.16;6138408;28;20219;-51
2021/09/22 03:38:00;;;;;;;13.80;5.20;;;;;;;14.13;76.09;102640.63;6135424;28;20231;-52
2021/09/22 03:41:23;;;;;;;14.23;6.60;;;;;;;13.87;77.02;102629.97;6135333;28;20294;-52
2021/09/22 03:44:44;;;;;;;18.00;7.50;;;;;;;13.90;77.26;102630.00;6144041;28;20212;-53
2021/09/22 03:48:06;;;;;;;18.87;5.20;;;;;;;13.94;77.24;102636.16;6141145;28;20228;-51
2021/09/22 03:51:27;;;;;;;20.40;7.37;;;;;;;14.09;76.46;102645.81;6151066;28;20530;-50
2021/09/22 03:54:48;;;;;;;19.27;6.23;;;;;;;14.16;75.81;102638.00;6136305;28;20224;-47
2021/09/22 03:58:11;;;;;;;16.63;5.60;;;;;;;14.27;75.62;102639.78;6125357;28;20310;-51
2021/09/22 04:01:31;;;;;;;13.30;5.37;;;;;;;14.17;75.79;102642.38;6145365;28;20529;-54
2021/09/22 04:04:53;;;;;;;14.63;5.80;;;;;;;14.21;75.82;102656.38;6155720;28;20696;-50
2021/09/22 04:08:14;;;;;;;14.97;7.07;;;;;;;14.32;75.63;102657.28;6147896;28;20232;-54
2021/09/22 04:11:40;;;;;;;21.17;5.60;;;;;;;14.42;75.77;102659.97;6141787;28;20500;-53
2021/09/22 04:15:03;;;;;;;16.53;4.80;;;;;;;14.48;75.21;102652.13;6139761;28;20717;-51
2021/09/22 04:18:24;;;;;;;16.60;5.43;;;;;;;14.34;75.41;102647.69;6144515;28;20235;-50
2021/09/22 04:21:45;;;;;;;19.47;6.03;;;;;;;14.26;76.20;102638.06;6142191;28;20313;-50
2021/09/22 04:25:09;;;;;;;16.17;5.67;;;;;;;14.09;76.74;102646.69;6141038;28;20191;-48
2021/09/22 04:28:34;;;;;;;19.17;5.77;;;;;;;13.93;77.51;102640.50;6140666;28;20238;-52
2021/09/22 04:32:15;;;;;;;17.90;5.73;;;;;;;14.32;76.10;102633.69;6134526;28;20247;-50
2021/09/22 04:35:56;;;;;;;17.23;7.17;;;;;;;14.37;75.86;102634.59;6130860;28;20272;-51
2021/09/22 04:39:36;;;;;;;16.07;6.43;;;;;;;14.52;74.76;102638.16;6138730;28;20215;-50
2021/09/22 04:43:16;;;;;;;17.27;6.27;;;;;;;14.16;76.70;102639.75;6128657;28;20235;-52
2021/09/22 04:46:55;;;;;;;14.60;5.83;;;;;;;14.22;76.56;102631.06;6134146;28;20223;-49
2021/09/22 04:50:37;;;;;;;15.03;5.90;;;;;;;13.97;77.69;102644.88;6136996;28;20235;-52
2021/09/22 04:54:16;;;;;;;23.13;6.20;;;;;;;14.18;76.87;102638.00;6142337;28;20220;-53
2021/09/22 04:57:56;;;;;;;16.97;6.07;;;;;;;14.25;76.49;102633.66;6138512;28;20228;-53
2021/09/22 05:01:39;;;;;;;18.30;5.53;;;;;;;14.10;76.74;102624.00;6119026;28;20231;-50
2021/09/22 05:05:19;;;;;;;18.90;9.87;;;;;;;14.06;77.24;102630.97;6142304;28;20208;-51
2021/09/22 05:09:00;;;;;;;26.37;7.73;;;;;;;13.85;77.25;102636.97;6124818;28;20246;-50
2021/09/22 05:12:40;;;;;;;14.43;6.63;;;;;;;13.73;78.24;102653.47;6116651;28;20238;-51
2021/09/22 05:16:20;;;;;;;12.77;6.30;;;;;;;14.10;76.67;102663.31;6107244;28;20243;-50
2021/09/22 05:19:59;;;;;;;14.67;6.30;;;;;;;14.31;76.11;102655.56;6122543;28;20463;-49
2021/09/22 05:23:39;;;;;;;16.37;6.60;;;;;;;13.99;77.04;102664.09;6119447;28;20814;-51
2021/09/22 05:27:20;;;;;;;20.57;7.03;;;;;;;13.79;77.90;102660.50;6122593;28;20330;-48
2021/09/22 05:31:00;;;;;;;15.10;6.53;;;;;;;13.78;78.40;102657.00;6120586;28;20235;-48
2021/09/22 05:34:40;;;;;;;15.60;6.43;;;;;;;14.09;77.38;102661.53;6116745;28;20223;-52
2021/09/22 05:38:20;;;;;;;18.73;6.93;;;;;;;14.13;76.84;102661.59;6119736;28;20227;-49
2021/09/22 05:41:59;;;;;;;17.13;6.10;;;;;;;14.29;76.58;102652.06;6133703;28;20219;-52
2021/09/22 05:45:40;;;;;;;18.47;6.50;;;;;;;14.26;76.40;102656.41;6137547;28;20192;-50
2021/09/22 05:49:20;;;;;;;20.93;8.07;;;;;;;14.30;76.23;102653.78;6133120;28;20586;-52
2021/09/22 05:53:00;;;;;;;21.13;6.10;;;;;;;14.54;75.31;102662.66;6134202;28;20236;-53
2021/09/22 05:56:40;;;;;;;12.10;5.23;;;;;;;14.55;75.01;102669.63;6133810;28;20231;-51
2021/09/22 06:00:20;;;;;;;19.17;6.80;;;;;;;14.55;75.20;102670.50;6135397;28;20223;-49
2021/09/22 06:04:01;;;;;;;16.03;7.77;;;;;;;14.39;76.50;102671.31;6138752;29;20494;-51
2021/09/22 06:07:51;;;;;;;20.70;7.13;;;;;;;14.79;74.55;102673.22;6133465;28;20227;-50
2021/09/22 06:11:31;;;;;;;19.20;7.57;;;;;;;15.10;73.21;102663.69;6138018;28;20850;-46
2021/09/22 06:15:00;;;;;;;20.80;7.00;;;;;;;15.13;73.03;102667.19;6156964;28;20625;-51
2021/09/22 06:18:21;;;;;;;15.60;6.80;;;;;;;15.13;72.77;102669.81;6140197;28;20231;-48
2021/09/22 06:21:44;;;;;;;14.77;5.63;;;;;;;15.06;73.29;102672.41;6138796;28;20227;-51
2021/09/22 06:25:05;;;;;;;15.23;6.87;;;;;;;15.26;73.09;102683.84;6145831;28;20290;-51
2021/09/22 06:28:28;;;;;;;16.10;6.20;;;;;;;15.17;72.72;102670.69;6141126;28;20333;-46
2021/09/22 06:31:49;;;;;;;22.17;6.63;;;;;;;15.14;73.65;102675.91;6144056;28;20254;-48
2021/09/22 06:35:21;;;;;;;19.63;6.90;;;;;;;15.10;73.27;102666.31;6151131;28;20199;-52
2021/09/22 06:38:52;;;;;;;17.37;7.97;;;;;;;15.13;73.12;102672.44;6138161;28;20231;-52
2021/09/22 06:42:13;;;;;;;12.93;6.77;;;;;;;14.85;74.86;102686.34;6144700;28;20219;-47
2021/09/22 06:45:34;;;;;;;17.83;7.73;;;;;;;14.81;75.84;102676.72;6151133;28;20193;-52
2021/09/22 06:48:55;;;;;;;16.07;8.17;;;;;;;15.02;75.62;102675.91;6147285;28;20223;-49
2021/09/22 06:52:16;;;;;;;53.70;12.63;;;;;;;14.97;75.30;102681.16;6143156;28;20532;-53
2021/09/22 06:55:39;;;;;;;44.87;15.07;;;;;;;14.82;76.18;102678.50;6143676;29;20204;-50
2021/09/22 06:59:00;;;;;;;22.27;8.40;;;;;;;14.21;78.14;102676.44;6140346;28;20228;-50
2021/09/22 07:02:21;;;;;;;18.00;9.47;;;;;;;14.56;77.50;102674.00;6141802;28;20235;-50
2021/09/22 07:05:44;;;;;;;18.17;10.23;;;;;;;14.47;78.13;102680.09;6147904;28;20199;-47
2021/09/22 07:09:04;;;;;;;22.43;10.50;;;;;;;14.29;78.83;102686.13;6141878;29;20668;-52
2021/09/22 07:12:27;;;;;;;17.20;9.07;;;;;;;15.11;75.58;102668.94;6133820;28;20235;-49
2021/09/22 07:15:48;;;;;;;12.90;7.87;;;;;;;15.49;74.26;102675.06;6141992;28;20232;-51
2021/09/22 07:19:09;;;;;;;16.83;9.87;;;;;;;15.47;73.81;102667.22;6132709;29;20200;-51
2021/09/22 07:22:30;;;;;;;14.17;8.20;;;;;;;15.78;72.84;102683.00;6140289;28;20328;-50
2021/09/22 07:25:51;;;;;;;17.20;8.70;;;;;;;16.08;71.67;102676.78;6143718;28;20196;-51
2021/09/22 07:29:14;;;;;;;17.17;8.87;;;;;;;16.08;71.74;102675.94;6141619;28;20207;-48
2021/09/22 07:32:35;;;;;;;15.73;8.47;;;;;;;16.06;71.66;102673.28;6136228;28;20514;-52
2021/09/22 07:35:56;;;;;;;12.50;7.63;;;;;;;16.56;70.62;102681.91;6137273;28;20211;-49
2021/09/22 07:39:17;;;;;;;10.70;7.27;;;;;;;16.37;70.79;102672.34;6140575;28;20227;-48
2021/09/22 07:42:38;;;;;;;16.87;9.60;;;;;;;16.55;69.60;102680.13;6143825;28;20318;-50
2021/09/22 07:46:02;;;;;;;15.40;8.80;;;;;;;16.21;70.44;102674.16;6140735;28;20232;-50
2021/09/22 07:49:23;;;;;;;17.53;9.70;;;;;;;16.33;70.09;102672.34;6145962;28;20677;-49
2021/09/22 07:52:45;;;;;;;23.07;11.37;;;;;;;16.43;69.92;102673.19;6138916;28;20231;-50
2021/09/22 07:56:06;;;;;;;18.00;8.27;;;;;;;16.91;69.40;102681.75;6148719;28;20234;-50
2021/09/22 07:59:29;;;;;;;19.40;9.87;;;;;;;16.53;69.87;102674.00;6138989;28;20819;-50
2021/09/22 08:02:53;;;;;;;21.67;9.97;;;;;;;16.83;68.41;102674.78;6145256;28;20266;-52
2021/09/22 08:06:14;;;;;;;17.77;9.70;;;;;;;17.29;67.13;102674.47;6141658;28;20258;-47
2021/09/22 08:09:35;;;;;;;17.97;10.83;;;;;;;17.08;67.11;102672.88;6143221;29;20275;-50
2021/09/22 08:12:57;;;;;;;17.70;10.67;;;;;;;17.04;67.60;102672.03;6143418;28;20231;-46
2021/09/22 08:16:18;;;;;;;16.73;9.30;;;;;;;17.60;65.74;102675.09;6143861;28;20235;-47
2021/09/22 08:19:40;;;;;;;14.77;8.50;;;;;;;16.95;67.79;102674.72;6135941;28;20204;-49
2021/09/22 08:23:01;;;;;;;16.47;9.23;;;;;;;16.60;69.29;102667.84;6140362;28;20307;-51
2021/09/22 08:26:23;;;;;;;15.00;7.97;;;;;;;17.36;67.07;102663.00;6145599;28;20629;-47
2021/09/22 08:29:44;;;;;;;15.47;7.87;;;;;;;17.39;66.17;102668.25;6142724;28;20802;-50
2021/09/22 08:33:06;;;;;;;14.17;8.17;;;;;;;17.65;65.78;102675.06;6136392;28;20234;-53
2021/09/22 08:36:28;;;;;;;15.80;7.23;;;;;;;17.36;67.06;102668.28;6135153;28;20279;-49
2021/09/22 08:39:50;;;;;;;16.27;9.43;;;;;;;17.28;66.73;102672.72;6133161;28;20299;-49
2021/09/22 08:43:12;;;;;;;18.80;8.70;;;;;;;17.62;65.62;102659.25;6139591;28;20222;-53
2021/09/22 08:46:35;;;;;;;34.40;10.57;;;;;;;17.24;66.72;102660.47;6147403;28;20224;-48
2021/09/22 08:49:57;;;;;;;39.67;13.30;;;;;;;17.15;67.79;102663.16;6144622;29;20274;-49
2021/09/22 08:53:19;;;;;;;14.10;8.30;;;;;;;16.88;68.60;102651.94;6135281;28;20231;-52
2021/09/22 08:56:42;;;;;;;18.23;7.13;;;;;;;17.27;67.84;102663.97;6135561;28;20271;-47
2021/09/22 09:00:05;;;;;;;15.55;7.45;;;;;;;17.89;65.38;102666.06;6140698;29;20665;-50
2021/09/22 09:03:30;;;;;;;14.52;7.85;;;;;;;17.24;67.46;102660.47;6146284;28;20231;-49
2021/09/22 09:06:55;;;;;;;13.77;7.90;;;;;;;17.85;65.98;102667.84;6139800;28;20639;-49
2021/09/22 09:10:19;;;;;;;12.50;7.77;;;;;;;17.78;66.48;102668.78;6144884;28;20219;-49
2021/09/22 09:13:48;;;;;;;12.10;7.50;;;;;;;18.30;64.90;102655.06;6137530;28;20235;-46
2021/09/22 09:17:19;;;;;;;12.10;7.57;;;;;;;18.02;66.33;102656.28;6134079;28;20258;-48
2021/09/22 09:20:41;;;;;;;9.17;6.43;;;;;;;18.57;64.01;102650.34;6141059;28;20214;-51
2021/09/22 09:24:02;;;;;;;11.82;6.88;;;;;;;17.78;65.71;102647.69;6138132;29;20210;-51
2021/09/22 09:27:37;;;;;;;11.88;6.75;;;;;;;17.10;68.15;102650.91;6141813;29;20227;-47
2021/09/22 09:31:00;;;;;;;12.52;7.30;;;;;;;17.10;68.25;102650.91;6138176;28;20196;-48
2021/09/22 09:34:21;;;;;;;11.18;6.60;;;;;;;17.48;67.76;102646.22;6126115;28;20200;-48
2021/09/22 09:37:44;;;;;;;10.35;6.75;;;;;;;18.26;65.01;102640.16;6145495;28;20231;-50
2021/09/22 09:41:05;;;;;;;10.98;7.57;;;;;;;17.30;67.30;102650.75;6142484;28;20573;-53
2021/09/22 09:44:29;;;;;;;9.70;7.33;;;;;;;17.99;65.87;102646.63;6154777;28;20223;-50
2021/09/22 09:48:02;;;;;;;10.23;7.18;;;;;;;19.31;62.04;102651.91;6144389;28;20235;-50
2021/09/22 09:51:30;;;;;;;11.07;7.07;;;;;;;19.70;60.72;102646.81;6138166;28;20613;-53
2021/09/22 09:54:52;;;;;;;16.98;7.88;;;;;;;20.09;59.85;102644.34;6147429;28;20208;-52
2021/09/22 09:58:13;;;;;;;13.52;6.65;;;;;;;19.81;59.59;102655.44;6144153;28;20234;-48
2021/09/22 10:01:44;;;;;;;11.90;7.07;;;;;;;19.77;59.39;102664.31;6146136;28;20628;-49
2021/09/22 10:05:05;;;;;;;11.73;6.80;;;;;;;19.25;60.85;102659.91;6144429;29;20234;-52
2021/09/22 10:08:28;;;;;;;12.25;6.72;;;;;;;18.86;62.33;102649.94;6137273;29;20223;-47
2021/09/22 10:11:49;;;;;;;7.85;6.65;;;;;;;19.37;60.83;102648.28;6141842;28;20223;-51
2021/09/22 10:15:12;;;;;;;17.88;8.55;;;;;;;19.48;60.33;102636.63;6145784;28;20601;-48
2021/09/22 10:18:36;;;;;;;9.68;6.13;;;;;;;18.56;63.17;102651.22;6146607;28;20231;-48
2021/09/22 10:21:58;;;;;;;9.50;6.70;;;;;;;19.40;60.83;102641.16;6146078;28;20227;-52
2021/09/22 10:25:23;;;;;;;13.10;5.75;;;;;;;18.60;63.12;102642.34;6154652;28;20196;-51
2021/09/22 10:28:46;;;;;;;7.28;5.05;;;;;;;18.95;62.82;102641.00;6143446;28;20231;-50
2021/09/22 10:32:08;;;;;;;8.18;4.80;;;;;;;19.76;59.48;102638.78;6147960;28;20509;-49
2021/09/22 10:35:37;;;;;;;11.00;4.97;;;;;;;19.67;58.33;102638.91;6144853;28;20215;-47
2021/09/22 10:38:58;;;;;;;8.00;4.68;;;;;;;22.51;50.80;102635.72;6147679;28;20219;-49
2021/09/22 10:42:27;;;;;;;10.57;4.47;;;;;;;21.75;51.25;102637.84;6145340;28;20222;-52
2021/09/22 10:46:09;;;;;;;8.90;4.05;;;;;;;20.69;53.22;102631.63;6150054;28;20199;-51
2021/09/22 10:49:38;;;;;;;9.45;4.50;;;;;;;20.32;54.61;102627.13;6141915;29;20220;-49
2021/09/22 10:53:00;;;;;;;6.38;3.33;;;;;;;21.21;52.06;102623.31;6140833;28;20235;-52
2021/09/22 10:56:23;;;;;;;8.38;4.03;;;;;;;24.75;42.33;102613.66;6136256;28;20235;-48
2021/09/22 10:59:44;;;;;;;8.52;3.30;;;;;;;26.35;40.04;102604.03;6144738;28;20330;-47
2021/09/22 11:03:05;;;;;;;9.00;3.85;;;;;;;28.20;35.21;102590.09;6139985;28;20254;-52
2021/09/22 11:06:52;;;;;;;26.52;6.65;;;;;;;24.68;41.10;102602.41;6141456;28;20628;-51
2021/09/22 11:10:33;;;;;;;5.88;3.28;;;;;;;28.79;32.80;102593.03;6147491;28;20574;-49
2021/09/22 11:13:54;;;;;;;5.47;2.78;;;;;;;28.01;32.63;102579.53;6141740;28;20227;-52
2021/09/22 11:17:17;;;;;;;5.38;2.38;;;;;;;30.08;30.51;102576.25;6148935;28;20231;-49
2021/09/22 11:20:39;;;;;;;7.38;3.67;;;;;;;29.81;31.05;102581.56;6155361;28;20199;-51
2021/09/22 11:24:10;;;;;;;6.57;3.38;;;;;;;26.53;36.02;102595.13;6137383;28;20342;-51
2021/09/22 11:27:34;;;;;;;4.90;3.15;;;;;;;26.06;36.53;102590.25;6135546;28;20231;-49
2021/09/22 11:30:55;;;;;;;22.42;7.10;;;;;;;31.10;29.12;102581.19;6144661;28;20192;-47
2021/09/22 11:34:25;;;;;;;5.78;3.67;;;;;;;30.66;28.29;102587.72;6138182;28;20211;-50
2021/09/22 11:37:48;;;;;;;5.38;3.40;;;;;;;27.79;31.58;102587.00;6144701;28;20617;-49
2021/09/22 11:41:09;;;;;;;5.88;3.13;;;;;;;27.78;33.27;102571.88;6143026;28;20242;-51
2021/09/22 11:44:33;;;;;;;3.67;2.88;;;;;;;29.10;31.96;102574.22;6142785;28;20195;-51
2021/09/22 11:47:54;;;;;;;5.97;2.60;;;;;;;30.96;28.96;102560.63;6137446;29;20644;-50
2021/09/22 11:51:16;;;;;;;3.45;2.47;;;;;;;32.52;26.71;102557.59;6138546;28;20313;-52
2021/09/22 11:54:41;;;;;;;6.18;3.33;;;;;;;31.51;27.59;102542.47;6142961;28;20203;-48
2021/09/22 11:58:04;;;;;;;3.55;2.47;;;;;;;31.96;27.72;102545.47;6139276;28;20306;-46
2021/09/22 12:01:27;;;;;;;5.43;3.17;;;;;;;34.50;23.31;102539.16;6140941;28;20595;-48
2021/09/22 12:04:48;;;;;;;7.13;3.80;;;;;;;28.36;31.86;102539.19;6138054;28;20200;-49
2021/09/22 12:08:10;;;;;;;5.38;2.63;;;;;;;30.92;28.06;102531.31;6141856;28;20235;-46
2021/09/22 12:11:31;;;;;;;5.15;2.45;;;;;;;30.42;27.99;102531.94;6137043;28;20712;-50
2021/09/22 12:14:55;;;;;;;10.77;3.88;;;;;;;28.99;30.37;102540.03;6137321;28;20725;-48
2021/09/22 12:18:18;;;;;;;9.02;2.60;;;;;;;29.83;29.50;102523.25;6138961;28;20728;-52
2021/09/22 12:21:40;;;;;;;5.88;2.50;;;;;;;30.92;28.29;102517.88;6138067;28;20239;-49
2021/09/22 12:25:01;;;;;;;10.02;3.40;;;;;;;32.70;25.19;102509.50;6138199;28;20310;-50
2021/09/22 12:28:24;;;;;;;4.65;2.17;;;;;;;31.06;26.28;102498.97;6138571;28;20722;-54
2021/09/22 12:31:45;;;;;;;9.18;2.58;;;;;;;32.41;24.52;102499.06;6138656;28;20236;-53
2021/09/22 12:35:09;;;;;;;5.97;2.30;;;;;;;32.56;24.80;102497.09;6143163;28;20196;-54
2021/09/22 12:38:30;;;;;;;5.13;2.38;;;;;;;33.80;24.04;102488.25;6141589;28;20235;-50
2021/09/22 12:41:58;;;;;;;8.25;2.13;;;;;;;33.87;23.05;102489.44;6139645;28;20227;-53
2021/09/22 12:45:23;;;;;;;3.85;2.22;;;;;;;31.97;25.48;102479.88;6139162;28;20199;-49
2021/09/22 12:48:46;;;;;;;4.63;2.25;;;;;;;29.11;29.14;102476.75;6143626;28;20238;-51
2021/09/22 12:52:21;;;;;;;4.85;2.65;;;;;;;26.61;33.80;102463.00;6142733;28;20223;-51
2021/09/22 12:55:46;;;;;;;4.47;2.08;;;;;;;29.40;28.85;102461.53;6142509;28;20325;-50
2021/09/22 12:59:17;;;;;;;5.13;2.00;;;;;;;26.76;33.39;102464.91;6142001;28;20238;-51
2021/09/22 13:02:38;;;;;;;4.75;2.45;;;;;;;30.11;28.29;102463.22;6142065;28;20591;-54
2021/09/22 13:06:05;;;;;;;4.38;2.55;;;;;;;29.22;28.73;102458.19;6139816;28;20235;-50
2021/09/22 13:09:32;;;;;;;5.05;3.33;;;;;;;28.70;30.39;102446.13;6137554;28;20534;-50
2021/09/22 13:12:54;;;;;;;5.43;2.67;;;;;;;28.12;31.02;102454.91;6143111;28;20227;-52
2021/09/22 13:16:35;;;;;;;4.57;2.35;;;;;;;28.00;31.45;102451.13;6144099;28;20505;-50
2021/09/22 13:19:56;;;;;;;4.60;2.20;;;;;;;27.94;30.85;102446.13;6146611;28;20223;-53
2021/09/22 13:23:22;;;;;;;5.18;2.50;;;;;;;29.69;28.70;102430.13;6145255;28;20227;-51
2021/09/22 13:26:46;;;;;;;3.65;1.90;;;;;;;31.07;27.12;102430.72;6142516;28;20227;-53
2021/09/22 13:30:08;;;;;;;4.85;1.95;;;;;;;27.65;32.54;102429.88;6142651;28;20241;-54
2021/09/22 13:33:29;;;;;;;4.72;2.35;;;;;;;28.40;30.50;102428.25;6146924;28;20278;-52
2021/09/22 13:36:50;;;;;;;4.53;1.95;;;;;;;29.74;28.80;102411.94;6145283;28;20231;-52
2021/09/22 13:40:12;;;;;;;5.70;1.95;;;;;;;30.61;27.03;102407.03;6137536;28;20223;-55
2021/09/22 13:43:35;;;;;;;4.05;2.00;;;;;;;31.56;25.36;102402.13;6146850;28;20239;-50
2021/09/22 13:46:56;;;;;;;5.20;2.17;;;;;;;31.26;26.86;102402.50;6142263;28;20224;-52
2021/09/22 13:50:17;;;;;;;3.40;2.35;;;;;;;28.52;29.96;102401.66;6135464;28;20234;-52
2021/09/22 13:53:38;;;;;;;3.22;2.33;;;;;;;28.22;31.53;102407.88;6147299;28;20228;-51
2021/09/22 13:57:01;;;;;;;6.35;2.38;;;;;;;27.43;32.78;102398.06;6151239;28;20303;-51
2021/09/22 14:00:23;;;;;;;5.53;2.17;;;;;;;29.12;29.15;102388.19;6144174;28;20223;-52
2021/09/22 14:03:45;;;;;;;3.38;1.90;;;;;;;29.16;29.17;102384.34;6142443;28;20247;-49
2021/09/22 14:07:06;;;;;;;3.17;2.05;;;;;;;29.69;29.10;102375.59;6143454;28;20314;-48
2021/09/22 14:10:28;;;;;;;2.42;1.55;;;;;;;29.61;29.12;102365.38;6148788;28;20207;-53
2021/09/22 14:13:49;;;;;;;3.67;1.95;;;;;;;27.34;32.11;102366.50;6144158;28;20223;-50
2021/09/22 14:17:11;;;;;;;3.20;1.75;;;;;;;27.44;32.71;102360.53;6137748;28;20230;-50
2021/09/22 14:20:33;;;;;;;4.50;3.10;;;;;;;25.19;36.64;102363.03;6135578;28;20299;-50
2021/09/22 14:23:55;;;;;;;5.55;1.70;;;;;;;27.45;32.49;102361.41;6126520;28;20234;-50
2021/09/22 14:27:16;;;;;;;4.47;2.08;;;;;;;26.43;33.52;102358.81;6145843;28;20228;-48
2021/09/22 14:30:38;;;;;;;2.85;1.70;;;;;;;27.34;32.87;102358.50;6147995;28;20209;-55
2021/09/22 14:34:00;;;;;;;3.53;1.88;;;;;;;27.79;32.44;102362.16;6141634;28;20212;-50
2021/09/22 14:37:21;;;;;;;4.40;1.92;;;;;;;26.51;34.31;102359.25;6144234;28;20227;-50
2021/09/22 14:40:45;;;;;;;5.75;2.45;;;;;;;25.30;36.63;102350.09;6146718;28;20327;-51
2021/09/22 14:44:06;;;;;;;4.38;2.22;;;;;;;24.11;38.40;102349.09;6143153;28;20652;-54
2021/09/22 14:47:27;;;;;;;5.65;2.90;;;;;;;24.29;38.96;102349.25;6147073;28;20613;-47
2021/09/22 14:50:50;;;;;;;4.72;2.80;;;;;;;24.52;38.79;102341.19;6146904;28;20224;-51
2021/09/22 14:54:11;;;;;;;5.18;2.67;;;;;;;23.37;41.27;102344.06;6137491;28;20310;-51
2021/09/22 14:57:32;;;;;;;4.78;2.50;;;;;;;23.93;40.33;102337.44;6141944;28;20235;-48
2021/09/22 15:00:53;;;;;;;5.85;2.78;;;;;;;23.35;41.23;102339.75;6134526;28;20220;-51
2021/09/22 15:04:14;;;;;;;5.32;2.80;;;;;;;24.26;40.23;102322.78;6136619;28;20211;-52
2021/09/22 15:07:38;;;;;;;5.43;2.80;;;;;;;23.61;41.31;102313.91;6135736;28;20231;-51
2021/09/22 15:10:59;;;;;;;8.63;3.17;;;;;;;23.20;42.44;102306.63;6136021;28;20650;-54
2021/09/22 15:14:20;;;;;;;6.90;3.22;;;;;;;23.85;41.35;102304.09;6133252;28;20203;-53
2021/09/22 15:17:42;;;;;;;8.50;3.17;;;;;;;23.45;42.33;102303.03;6133728;28;20337;-54
2021/09/22 15:21:03;;;;;;;5.35;3.17;;;;;;;23.08;41.81;102300.00;6140254;28;20204;-52
2021/09/22 15:24:25;;;;;;;8.02;3.40;;;;;;;22.69;42.65;102297.03;6136664;28;20208;-53
2021/09/22 15:27:47;;;;;;;5.05;3.17;;;;;;;23.13;41.30;102291.88;6139032;28;20250;-53
2021/09/22 15:31:08;;;;;;;7.47;3.67;;;;;;;23.37;40.66;102290.03;6141937;28;20211;-52
2021/09/22 15:34:29;;;;;;;4.80;2.65;;;;;;;23.43;40.92;102299.56;6132729;28;20211;-52
2021/09/22 15:37:51;;;;;;;5.22;2.53;;;;;;;22.45;42.35;102283.72;6145057;28;20317;-52
2021/09/22 15:41:14;;;;;;;5.22;3.30;;;;;;;23.31;41.17;102280.50;6142763;28;20235;-51
2021/09/22 15:44:35;;;;;;;5.60;2.80;;;;;;;23.06;41.28;102283.25;6142017;28;20200;-51